sensor_id;sensor_type;location;lat;lon;timestamp;pressure;altitude;pressure_sealevel;temperature
15607;BMP180;7865;50.918;4.510;2024-03-08T01:00:59;100982.00;;;3.10
15607;BMP180;7865;50.918;4.510;2024-03-08T01:06:01;100981.00;;;3.10
15607;BMP180;7865;50.918;4.510;2024-03-08T01:11:04;100985.00;;;3.10
15607;BMP180;7865;50.918;4.510;2024-03-08T01:16:05;100976.00;;;3.10
15607;BMP180;7865;50.918;4.510;2024-03-08T01:21:07;100969.00;;;3.10
15607;BMP180;7865;50.918;4.510;2024-03-08T01:26:08;100972.00;;;3.10
15607;BMP180;7865;50.918;4.510;2024-03-08T01:31:09;100964.00;;;3.00
15607;BMP180;7865;50.918;4.510;2024-03-08T01:36:11;100954.00;;;3.00
15607;BMP180;7865;50.918;4.510;2024-03-08T01:41:16;100944.00;;;3.00
15607;BMP180;7865;50.918;4.510;2024-03-08T01:46:19;100946.00;;;3.00
15607;BMP180;7865;50.918;4.510;2024-03-08T01:51:23;100934.00;;;3.00
15607;BMP180;7865;50.918;4.510;2024-03-08T01:56:24;100937.00;;;2.90
15607;BMP180;7865;50.918;4.510;2024-03-08T02:01:27;100930.00;;;2.90
15607;BMP180;7865;50.918;4.510;2024-03-08T02:06:28;100921.00;;;2.90
15607;BMP180;7865;50.918;4.510;2024-03-08T02:11:30;100924.00;;;2.80
15607;BMP180;7865;50.918;4.510;2024-03-08T02:16:32;100910.00;;;2.80
15607;BMP180;7865;50.918;4.510;2024-03-08T02:21:34;100912.00;;;2.70
15607;BMP180;7865;50.918;4.510;2024-03-08T02:26:35;100899.00;;;2.70
15607;BMP180;7865;50.918;4.510;2024-03-08T02:31:36;100890.00;;;2.60
15607;BMP180;7865;50.918;4.510;2024-03-08T02:36:37;100888.00;;;2.60
15607;BMP180;7865;50.918;4.510;2024-03-08T02:41:39;100880.00;;;2.60
15607;BMP180;7865;50.918;4.510;2024-03-08T02:46:40;100866.00;;;2.60
15607;BMP180;7865;50.918;4.510;2024-03-08T02:51:41;100873.00;;;2.50
15607;BMP180;7865;50.918;4.510;2024-03-08T02:56:42;100857.00;;;2.50
15607;BMP180;7865;50.918;4.510;2024-03-08T03:01:44;100851.00;;;2.50
15607;BMP180;7865;50.918;4.510;2024-03-08T03:06:45;100856.00;;;2.40
15607;BMP180;7865;50.918;4.510;2024-03-08T03:11:47;100849.00;;;2.40
15607;BMP180;7865;50.918;4.510;2024-03-08T03:16:48;100844.00;;;2.40
15607;BMP180;7865;50.918;4.510;2024-03-08T03:21:49;100837.00;;;2.40
15607;BMP180;7865;50.918;4.510;2024-03-08T03:26:50;100833.00;;;2.30
15607;BMP180;7865;50.918;4.510;2024-03-08T03:31:53;100827.00;;;2.30
15607;BMP180;7865;50.918;4.510;2024-03-08T03:36:54;100814.00;;;2.20
15607;BMP180;7865;50.918;4.510;2024-03-08T03:41:56;100811.00;;;2.20
15607;BMP180;7865;50.918;4.510;2024-03-08T03:46:57;100805.00;;;2.20
15607;BMP180;7865;50.918;4.510;2024-03-08T03:51:59;100797.00;;;2.10
15607;BMP180;7865;50.918;4.510;2024-03-08T03:57:00;100798.00;;;2.10
15607;BMP180;7865;50.918;4.510;2024-03-08T04:02:01;100792.00;;;2.10
15607;BMP180;7865;50.918;4.510;2024-03-08T04:07:04;100783.00;;;2.00
15607;BMP180;7865;50.918;4.510;2024-03-08T04:12:06;100776.00;;;2.00
15607;BMP180;7865;50.918;4.510;2024-03-08T04:17:07;100769.00;;;2.00
15607;BMP180;7865;50.918;4.510;2024-03-08T04:22:09;100769.00;;;2.00
15607;BMP180;7865;50.918;4.510;2024-03-08T04:27:11;100768.00;;;2.00
15607;BMP180;7865;50.918;4.510;2024-03-08T04:32:12;100762.00;;;2.00
15607;BMP180;7865;50.918;4.510;2024-03-08T04:37:14;100761.00;;;2.00
15607;BMP180;7865;50.918;4.510;2024-03-08T04:42:15;100759.00;;;2.00
15607;BMP180;7865;50.918;4.510;2024-03-08T04:47:19;100754.00;;;1.90
15607;BMP180;7865;50.918;4.510;2024-03-08T04:52:21;100755.00;;;1.90
15607;BMP180;7865;50.918;4.510;2024-03-08T04:57:23;100745.00;;;1.90
15607;BMP180;7865;50.918;4.510;2024-03-08T05:02:24;100734.00;;;1.90
15607;BMP180;7865;50.918;4.510;2024-03-08T05:07:25;100738.00;;;1.90
15607;BMP180;7865;50.918;4.510;2024-03-08T05:12:26;100726.00;;;1.80
15607;BMP180;7865;50.918;4.510;2024-03-08T05:17:28;100731.00;;;1.80
15607;BMP180;7865;50.918;4.510;2024-03-08T05:22:29;100723.00;;;1.80
15607;BMP180;7865;50.918;4.510;2024-03-08T05:27:30;100709.00;;;1.80
15607;BMP180;7865;50.918;4.510;2024-03-08T05:32:32;100707.00;;;1.80
15607;BMP180;7865;50.918;4.510;2024-03-08T05:37:33;100714.00;;;1.80
15607;BMP180;7865;50.918;4.510;2024-03-08T05:42:35;100696.00;;;1.80
15607;BMP180;7865;50.918;4.510;2024-03-08T05:47:39;100705.00;;;1.70
15607;BMP180;7865;50.918;4.510;2024-03-08T05:52:40;100700.00;;;1.70
15607;BMP180;7865;50.918;4.510;2024-03-08T05:57:41;100684.00;;;1.70
15607;BMP180;7865;50.918;4.510;2024-03-08T06:02:43;100690.00;;;1.70
15607;BMP180;7865;50.918;4.510;2024-03-08T06:07:44;100678.00;;;1.70
15607;BMP180;7865;50.918;4.510;2024-03-08T06:12:45;100679.00;;;1.70
15607;BMP180;7865;50.918;4.510;2024-03-08T06:17:46;100686.00;;;1.70
15607;BMP180;7865;50.918;4.510;2024-03-08T06:22:48;100680.00;;;1.70
15607;BMP180;7865;50.918;4.510;2024-03-08T06:27:50;100683.00;;;1.80
15607;BMP180;7865;50.918;4.510;2024-03-08T06:32:52;100675.00;;;1.90
15607;BMP180;7865;50.918;4.510;2024-03-08T06:37:53;100673.00;;;1.90
15607;BMP180;7865;50.918;4.510;2024-03-08T06:42:55;100656.00;;;2.10
15607;BMP180;7865;50.918;4.510;2024-03-08T06:47:56;100650.00;;;2.10
15607;BMP180;7865;50.918;4.510;2024-03-08T06:52:57;100656.00;;;2.20
15607;BMP180;7865;50.918;4.510;2024-03-08T06:58:01;100645.00;;;2.40
15607;BMP180;7865;50.918;4.510;2024-03-08T07:03:02;100635.00;;;2.60
15607;BMP180;7865;50.918;4.510;2024-03-08T07:08:04;100633.00;;;2.80
15607;BMP180;7865;50.918;4.510;2024-03-08T07:13:06;100615.00;;;3.00
15607;BMP180;7865;50.918;4.510;2024-03-08T07:18:07;100616.00;;;3.30
15607;BMP180;7865;50.918;4.510;2024-03-08T07:23:10;100603.00;;;3.50
15607;BMP180;7865;50.918;4.510;2024-03-08T07:28:11;100598.00;;;3.80
15607;BMP180;7865;50.918;4.510;2024-03-08T07:33:14;100606.00;;;4.20
15607;BMP180;7865;50.918;4.510;2024-03-08T07:38:16;100592.00;;;4.40
15607;BMP180;7865;50.918;4.510;2024-03-08T07:43:17;100569.00;;;4.60
15607;BMP180;7865;50.918;4.510;2024-03-08T07:48:19;100581.00;;;4.70
15607;BMP180;7865;50.918;4.510;2024-03-08T07:53:20;100567.00;;;5.00
15607;BMP180;7865;50.918;4.510;2024-03-08T07:58:21;100566.00;;;5.30
15607;BMP180;7865;50.918;4.510;2024-03-08T08:03:24;100558.00;;;5.40
15607;BMP180;7865;50.918;4.510;2024-03-08T08:08:26;100554.00;;;5.70
15607;BMP180;7865;50.918;4.510;2024-03-08T08:13:27;100543.00;;;6.00
15607;BMP180;7865;50.918;4.510;2024-03-08T08:18:33;100535.00;;;6.30
15607;BMP180;7865;50.918;4.510;2024-03-08T08:23:34;100511.00;;;6.50
15607;BMP180;7865;50.918;4.510;2024-03-08T08:28:35;100507.00;;;6.90
15607;BMP180;7865;50.918;4.510;2024-03-08T08:33:36;100502.00;;;7.20
15607;BMP180;7865;50.918;4.510;2024-03-08T08:38:38;100488.00;;;7.40
15607;BMP180;7865;50.918;4.510;2024-03-08T08:43:39;100481.00;;;7.60
15607;BMP180;7865;50.918;4.510;2024-03-08T08:48:50;100470.00;;;7.80
15607;BMP180;7865;50.918;4.510;2024-03-08T08:53:52;100476.00;;;8.10
15607;BMP180;7865;50.918;4.510;2024-03-08T08:58:53;100466.00;;;8.40
15607;BMP180;7865;50.918;4.510;2024-03-08T09:03:58;100453.00;;;8.70
15607;BMP180;7865;50.918;4.510;2024-03-08T09:09:00;100440.00;;;8.90
15607;BMP180;7865;50.918;4.510;2024-03-08T09:14:05;100450.00;;;9.10
15607;BMP180;7865;50.918;4.510;2024-03-08T09:19:07;100431.00;;;9.40
15607;BMP180;7865;50.918;4.510;2024-03-08T09:24:08;100428.00;;;9.60
15607;BMP180;7865;50.918;4.510;2024-03-08T09:29:09;100427.00;;;9.80
15607;BMP180;7865;50.918;4.510;2024-03-08T09:34:11;100413.00;;;10.10
15607;BMP180;7865;50.918;4.510;2024-03-08T09:39:20;100400.00;;;10.30
15607;BMP180;7865;50.918;4.510;2024-03-08T09:44:23;100390.00;;;10.40
15607;BMP180;7865;50.918;4.510;2024-03-08T09:49:27;100383.00;;;10.60
15607;BMP180;7865;50.918;4.510;2024-03-08T09:54:28;100375.00;;;11.00
15607;BMP180;7865;50.918;4.510;2024-03-08T09:59:30;100363.00;;;11.20
15607;BMP180;7865;50.918;4.510;2024-03-08T10:04:39;100356.00;;;11.40
15607;BMP180;7865;50.918;4.510;2024-03-08T10:09:43;100341.00;;;11.50
15607;BMP180;7865;50.918;4.510;2024-03-08T10:14:55;100337.00;;;11.50
15607;BMP180;7865;50.918;4.510;2024-03-08T10:19:56;100325.00;;;11.70
15607;BMP180;7865;50.918;4.510;2024-03-08T10:25:00;100325.00;;;11.80
15607;BMP180;7865;50.918;4.510;2024-03-08T10:30:02;100321.00;;;12.20
15607;BMP180;7865;50.918;4.510;2024-03-08T10:35:05;100314.00;;;12.30
15607;BMP180;7865;50.918;4.510;2024-03-08T10:40:09;100309.00;;;12.80
15607;BMP180;7865;50.918;4.510;2024-03-08T10:45:37;100297.00;;;12.90
15607;BMP180;7865;50.918;4.510;2024-03-08T10:50:39;100289.00;;;12.80
15607;BMP180;7865;50.918;4.510;2024-03-08T10:55:42;100277.00;;;13.00
15607;BMP180;7865;50.918;4.510;2024-03-08T11:00:44;100278.00;;;13.00
15607;BMP180;7865;50.918;4.510;2024-03-08T11:05:45;100270.00;;;13.30
15607;BMP180;7865;50.918;4.510;2024-03-08T11:10:54;100266.00;;;13.50
15607;BMP180;7865;50.918;4.510;2024-03-08T11:15:56;100257.00;;;13.60
15607;BMP180;7865;50.918;4.510;2024-03-08T11:20:58;100264.00;;;13.50
15607;BMP180;7865;50.918;4.510;2024-03-08T11:25:59;100248.00;;;13.80
15607;BMP180;7865;50.918;4.510;2024-03-08T11:36:10;100241.00;;;13.90
15607;BMP180;7865;50.918;4.510;2024-03-08T11:41:24;100231.00;;;13.90
15607;BMP180;7865;50.918;4.510;2024-03-08T11:46:25;100233.00;;;14.00
15607;BMP180;7865;50.918;4.510;2024-03-08T11:51:29;100223.00;;;14.10
15607;BMP180;7865;50.918;4.510;2024-03-08T11:56:31;100209.00;;;14.10
15607;BMP180;7865;50.918;4.510;2024-03-08T12:01:33;100207.00;;;14.10
15607;BMP180;7865;50.918;4.510;2024-03-08T12:06:37;100199.00;;;14.20
15607;BMP180;7865;50.918;4.510;2024-03-08T12:11:41;100190.00;;;14.50
15607;BMP180;7865;50.918;4.510;2024-03-08T12:16:44;100172.00;;;14.30
15607;BMP180;7865;50.918;4.510;2024-03-08T12:21:45;100173.00;;;14.30
15607;BMP180;7865;50.918;4.510;2024-03-08T12:26:49;100162.00;;;14.30
15607;BMP180;7865;50.918;4.510;2024-03-08T12:31:51;100138.00;;;14.50
15607;BMP180;7865;50.918;4.510;2024-03-08T12:36:56;100136.00;;;14.50
15607;BMP180;7865;50.918;4.510;2024-03-08T12:41:57;100128.00;;;14.60
15607;BMP180;7865;50.918;4.510;2024-03-08T12:46:59;100128.00;;;14.90
15607;BMP180;7865;50.918;4.510;2024-03-08T12:52:01;100108.00;;;14.90
15607;BMP180;7865;50.918;4.510;2024-03-08T12:57:02;100101.00;;;14.90
15607;BMP180;7865;50.918;4.510;2024-03-08T13:02:06;100090.00;;;14.80
15607;BMP180;7865;50.918;4.510;2024-03-08T13:07:12;100087.00;;;14.80
15607;BMP180;7865;50.918;4.510;2024-03-08T13:12:17;100069.00;;;14.80
15607;BMP180;7865;50.918;4.510;2024-03-08T13:17:19;100050.00;;;14.90
15607;BMP180;7865;50.918;4.510;2024-03-08T13:22:20;100043.00;;;14.80
15607;BMP180;7865;50.918;4.510;2024-03-08T13:27:23;100043.00;;;14.70
15607;BMP180;7865;50.918;4.510;2024-03-08T13:32:26;100031.00;;;14.60
15607;BMP180;7865;50.918;4.510;2024-03-08T13:37:28;100033.00;;;14.40
15607;BMP180;7865;50.918;4.510;2024-03-08T13:42:30;100015.00;;;14.60
15607;BMP180;7865;50.918;4.510;2024-03-08T13:47:31;100006.00;;;14.90
15607;BMP180;7865;50.918;4.510;2024-03-08T13:52:33;99991.00;;;15.40
15607;BMP180;7865;50.918;4.510;2024-03-08T13:57:35;99928.00;;;17.40
15607;BMP180;7865;50.918;4.510;2024-03-08T14:02:37;99874.00;;;18.90
15607;BMP180;7865;50.918;4.510;2024-03-08T14:07:38;99861.00;;;18.90
15607;BMP180;7865;50.918;4.510;2024-03-08T14:12:39;99871.00;;;18.70
15607;BMP180;7865;50.918;4.510;2024-03-08T14:17:41;99878.00;;;18.10
15607;BMP180;7865;50.918;4.510;2024-03-08T14:22:42;99893.00;;;17.50
15607;BMP180;7865;50.918;4.510;2024-03-08T14:27:44;99874.00;;;17.20
15607;BMP180;7865;50.918;4.510;2024-03-08T14:32:45;99878.00;;;17.70
15607;BMP180;7865;50.918;4.510;2024-03-08T14:37:48;99844.00;;;17.80
15607;BMP180;7865;50.918;4.510;2024-03-08T14:42:50;99878.00;;;16.90
15607;BMP180;7865;50.918;4.510;2024-03-08T14:47:52;99807.00;;;17.70
15607;BMP180;7865;50.918;4.510;2024-03-08T14:52:53;99836.00;;;17.50
15607;BMP180;7865;50.918;4.510;2024-03-08T14:57:55;99857.00;;;17.40
15607;BMP180;7865;50.918;4.510;2024-03-08T15:02:56;99837.00;;;18.70
15607;BMP180;7865;50.918;4.510;2024-03-08T15:08:01;99825.00;;;17.30
15607;BMP180;7865;50.918;4.510;2024-03-08T15:13:03;99856.00;;;16.00
15607;BMP180;7865;50.918;4.510;2024-03-08T15:18:15;99856.00;;;14.70
15607;BMP180;7865;50.918;4.510;2024-03-08T15:23:16;99836.00;;;14.50
15607;BMP180;7865;50.918;4.510;2024-03-08T15:28:17;99834.00;;;15.20
15607;BMP180;7865;50.918;4.510;2024-03-08T15:33:21;99847.00;;;14.30
15607;BMP180;7865;50.918;4.510;2024-03-08T15:38:28;99834.00;;;14.10
15607;BMP180;7865;50.918;4.510;2024-03-08T15:43:29;99827.00;;;14.50
15607;BMP180;7865;50.918;4.510;2024-03-08T15:48:34;99844.00;;;13.80
15607;BMP180;7865;50.918;4.510;2024-03-08T15:53:38;99842.00;;;13.20
15607;BMP180;7865;50.918;4.510;2024-03-08T15:58:39;99833.00;;;12.90
15607;BMP180;7865;50.918;4.510;2024-03-08T16:03:42;99833.00;;;12.80
15607;BMP180;7865;50.918;4.510;2024-03-08T16:08:43;99839.00;;;12.60
15607;BMP180;7865;50.918;4.510;2024-03-08T16:13:44;99837.00;;;12.50
15607;BMP180;7865;50.918;4.510;2024-03-08T16:18:45;99839.00;;;12.30
15607;BMP180;7865;50.918;4.510;2024-03-08T16:23:47;99832.00;;;12.10
15607;BMP180;7865;50.918;4.510;2024-03-08T16:28:49;99832.00;;;11.90
15607;BMP180;7865;50.918;4.510;2024-03-08T16:33:50;99832.00;;;11.80
15607;BMP180;7865;50.918;4.510;2024-03-08T16:38:51;99826.00;;;11.60
15607;BMP180;7865;50.918;4.510;2024-03-08T16:43:53;99826.00;;;11.50
15607;BMP180;7865;50.918;4.510;2024-03-08T16:48:54;99826.00;;;11.30
15607;BMP180;7865;50.918;4.510;2024-03-08T16:53:55;99829.00;;;11.20
15607;BMP180;7865;50.918;4.510;2024-03-08T16:58:56;99825.00;;;11.00
15607;BMP180;7865;50.918;4.510;2024-03-08T17:03:57;99837.00;;;10.80
15607;BMP180;7865;50.918;4.510;2024-03-08T17:09:02;99830.00;;;10.60
15607;BMP180;7865;50.918;4.510;2024-03-08T17:14:03;99826.00;;;10.50
15607;BMP180;7865;50.918;4.510;2024-03-08T17:19:05;99821.00;;;10.40
15607;BMP180;7865;50.918;4.510;2024-03-08T17:24:07;99823.00;;;10.30
15607;BMP180;7865;50.918;4.510;2024-03-08T17:29:12;99823.00;;;10.10
15607;BMP180;7865;50.918;4.510;2024-03-08T17:34:15;99826.00;;;9.90
15607;BMP180;7865;50.918;4.510;2024-03-08T17:39:19;99817.00;;;9.70
15607;BMP180;7865;50.918;4.510;2024-03-08T17:44:21;99819.00;;;9.70
15607;BMP180;7865;50.918;4.510;2024-03-08T17:49:27;99820.00;;;9.60
15607;BMP180;7865;50.918;4.510;2024-03-08T17:54:28;99813.00;;;9.50
15607;BMP180;7865;50.918;4.510;2024-03-08T17:59:29;99819.00;;;9.40
15607;BMP180;7865;50.918;4.510;2024-03-08T18:04:30;99821.00;;;9.30
15607;BMP180;7865;50.918;4.510;2024-03-08T18:09:32;99821.00;;;9.20
15607;BMP180;7865;50.918;4.510;2024-03-08T18:14:33;99809.00;;;9.10
15607;BMP180;7865;50.918;4.510;2024-03-08T18:19:35;99813.00;;;9.00
15607;BMP180;7865;50.918;4.510;2024-03-08T18:24:37;99811.00;;;8.90
15607;BMP180;7865;50.918;4.510;2024-03-08T18:29:38;99817.00;;;8.90
15607;BMP180;7865;50.918;4.510;2024-03-08T18:34:40;99807.00;;;8.80
15607;BMP180;7865;50.918;4.510;2024-03-08T18:39:44;99813.00;;;8.80
15607;BMP180;7865;50.918;4.510;2024-03-08T18:44:45;99803.00;;;8.70
15607;BMP180;7865;50.918;4.510;2024-03-08T18:49:46;99803.00;;;8.70
15607;BMP180;7865;50.918;4.510;2024-03-08T18:54:48;99811.00;;;8.60
15607;BMP180;7865;50.918;4.510;2024-03-08T18:59:49;99800.00;;;8.50
15607;BMP180;7865;50.918;4.510;2024-03-08T19:04:51;99796.00;;;8.40
15607;BMP180;7865;50.918;4.510;2024-03-08T19:09:56;99800.00;;;8.30
15607;BMP180;7865;50.918;4.510;2024-03-08T19:14:58;99801.00;;;8.20
15607;BMP180;7865;50.918;4.510;2024-03-08T19:19:59;99801.00;;;8.10
15607;BMP180;7865;50.918;4.510;2024-03-08T19:25:01;99806.00;;;8.00
15607;BMP180;7865;50.918;4.510;2024-03-08T19:30:05;99806.00;;;8.00
15607;BMP180;7865;50.918;4.510;2024-03-08T19:35:07;99799.00;;;7.90
15607;BMP180;7865;50.918;4.510;2024-03-08T19:40:19;99797.00;;;7.90
15607;BMP180;7865;50.918;4.510;2024-03-08T19:45:25;99805.00;;;7.90
15607;BMP180;7865;50.918;4.510;2024-03-08T19:50:31;99821.00;;;8.00
15607;BMP180;7865;50.918;4.510;2024-03-08T19:55:37;99808.00;;;8.10
15607;BMP180;7865;50.918;4.510;2024-03-08T20:00:40;99819.00;;;8.00
15607;BMP180;7865;50.918;4.510;2024-03-08T20:05:41;99813.00;;;8.00
15607;BMP180;7865;50.918;4.510;2024-03-08T20:10:45;99818.00;;;8.00
15607;BMP180;7865;50.918;4.510;2024-03-08T20:15:52;99821.00;;;8.00
15607;BMP180;7865;50.918;4.510;2024-03-08T20:20:56;99812.00;;;8.00
15607;BMP180;7865;50.918;4.510;2024-03-08T20:25:58;99813.00;;;8.00
15607;BMP180;7865;50.918;4.510;2024-03-08T20:31:01;99806.00;;;8.00
15607;BMP180;7865;50.918;4.510;2024-03-08T20:36:03;99808.00;;;8.00
15607;BMP180;7865;50.918;4.510;2024-03-08T20:41:07;99806.00;;;8.00
15607;BMP180;7865;50.918;4.510;2024-03-08T20:46:11;99805.00;;;8.00
15607;BMP180;7865;50.918;4.510;2024-03-08T20:51:18;99793.00;;;8.00
15607;BMP180;7865;50.918;4.510;2024-03-08T20:56:20;99799.00;;;8.00
15607;BMP180;7865;50.918;4.510;2024-03-08T21:01:21;99803.00;;;8.00
15607;BMP180;7865;50.918;4.510;2024-03-08T21:06:28;99793.00;;;8.00
15607;BMP180;7865;50.918;4.510;2024-03-08T21:11:30;99785.00;;;7.90
15607;BMP180;7865;50.918;4.510;2024-03-08T21:16:32;99778.00;;;7.90
15607;BMP180;7865;50.918;4.510;2024-03-08T21:21:33;99791.00;;;7.90
15607;BMP180;7865;50.918;4.510;2024-03-08T21:26:34;99773.00;;;7.80
15607;BMP180;7865;50.918;4.510;2024-03-08T21:31:37;99781.00;;;7.80
15607;BMP180;7865;50.918;4.510;2024-03-08T21:36:38;99778.00;;;7.80
15607;BMP180;7865;50.918;4.510;2024-03-08T21:41:40;99768.00;;;7.80
15607;BMP180;7865;50.918;4.510;2024-03-08T21:46:43;99765.00;;;7.70
15607;BMP180;7865;50.918;4.510;2024-03-08T21:51:45;99756.00;;;7.80
15607;BMP180;7865;50.918;4.510;2024-03-08T21:56:52;99758.00;;;7.80
15607;BMP180;7865;50.918;4.510;2024-03-08T22:01:53;99762.00;;;7.80
15607;BMP180;7865;50.918;4.510;2024-03-08T22:06:54;99762.00;;;7.70
15607;BMP180;7865;50.918;4.510;2024-03-08T22:12:31;99755.00;;;7.70
15607;BMP180;7865;50.918;4.510;2024-03-08T22:35:09;99766.00;;;7.30
15607;BMP180;7865;50.918;4.510;2024-03-08T22:52:45;99752.00;;;7.30
15607;BMP180;7865;50.918;4.510;2024-03-08T22:57:54;99757.00;;;7.30
15607;BMP180;7865;50.918;4.510;2024-03-08T23:21:44;99734.00;;;7.30
15607;BMP180;7865;50.918;4.510;2024-03-08T23:26:47;99726.00;;;7.30
15607;BMP180;7865;50.918;4.510;2024-03-08T23:31:48;99731.00;;;7.30
15607;BMP180;7865;50.918;4.510;2024-03-08T23:36:50;99727.00;;;7.30
15607;BMP180;7865;50.918;4.510;2024-03-08T23:41:51;99728.00;;;7.30
15607;BMP180;7865;50.918;4.510;2024-03-08T23:46:52;99730.00;;;7.30
15607;BMP180;7865;50.918;4.510;2024-03-08T23:51:53;99734.00;;;7.30
15607;BMP180;7865;50.918;4.510;2024-03-08T23:56:54;99728.00;;;7.20
